Allen Army Airfield
PABI : rendu visible

Aérodrome :











RETROUVEZ-NOUS SUR...

 
LOGIN :

S'inscrire | Disclaimer

   EN    FR    IT 

 









Légende :    VFR   VFR Marginal   IFR   IFR Intensif   IFR Très Intensif
Visi : 
Plafond : 
>= 8 km
>= 3000ft
5 à 8 km
1000 à 3000 ft
1500m à 5 km
500 à 1000 ft
800 à 1500m
200 à 500 ft
< 800m
< 200 ft
Symboles :   Orages  Brouillard  Fortes neiges  Fortes précipitations  Vent > 20 kt






- Altitude de l'aérodrome : 1291 ft
- Code IATA : BIG


PABI - Allen Army

DERNIER METAR :
  • 041353Z 00000KT 10SM BKN100 BKN130 OVC180 M06/M06 A2994 RMK AO2 SLP164 I1000 T10611061

METARs EXPIRÉS :
  • 041253Z AUTO 10006KT 10SM OVC100 M06/M07 A2994 RMK AO2 SLP166 I1000 T10611067 TSNO
  • 041153Z AUTO 09003KT 10SM BKN110 M06/M07 A2997 RMK AO2 SLP175 70012 I6000 T10611072 11017 21067 58021 TSNO

TAF TAF PABI
Valide du 04 à 06h jusqu'au 05 à 12h UTC


040600Z 0406/0512 26006KT 9999 OVC020 610208 QNH2999INS
BECMG 0410/0411 VRB06KT 9999 BKN010 610109 QNH2995INS
BECMG 0419/0420 23007KT 9999 SCT030 QNH2951INS TX00/0503Z TNM07/0412Z FOR MIL USE ONLY LAST NO AMDS AFT 0406 NEXT 0614



MET'MAP, la Météo Aéronautique d'un coup d'oeil ! - Copyright ORBIFLY Décembre 2007 - Disclaimer

ORBIFLY MET'MAP TEAM :

Programmation & Développement : Alexandra Zaïnal
Sur une idée originale de : Baudouin d'Aumeries
Assistance à la programmation : Marc-Olivier Méhu
Soutien technique & logistique : Manuel Goepfert

Contact : metmap@orbifly.com




SOURCES & CREDITS :

   NOAA       Earth
Advisory